Weather reports worldwide

Advertisment
Salsburgh, United Kingdom (99024): temperature & dewpoint: 22.02.2017 14:00:00 - 28.02.2017 14:00:00 (GMT)Salsburgh, United Kingdom (99024): wind speed & gusts: 22.02.2017 14:00:00 - 28.02.2017 14:00:00 (GMT)Salsburgh, United Kingdom (99024): wind direction: 22.02.2017 14:00:00 - 28.02.2017 14:00:00 (GMT)Salsburgh, United Kingdom (99024): precipitation: 22.02.2017 14:00:00 - 28.02.2017 14:00:00 (GMT)
Date & Time tt [°C] td [°C] ff [km/h] ff [kn] fx [km/h] fx [kn] dd rr [mm]
28.02.2017 14:00:00 3,6 0,1 2 1 - - NNE 0,0
28.02.2017 13:00:00 3,1 1,0 5 3 - - NNE 0,0
28.02.2017 12:00:00 3,2 2,1 4 2 - - NW 0,0
28.02.2017 11:00:00 1,2 0,7 8 4 - - SSE 0,0
28.02.2017 10:00:00 1,6 1,6 4 2 - - S 0,2
28.02.2017 09:00:00 -0,3 -0,3 11 6 - - S 0,0
28.02.2017 08:00:00 -1,6 -1,7 9 5 - - S 0,0
28.02.2017 07:00:00 -2,3 -2,5 11 6 - - S 0,0
28.02.2017 06:00:00 -2,4 -2,5 11 6 - - SW 0,0
28.02.2017 05:00:00 -2,6 -2,7 8 4 - - SSW 0,0
28.02.2017 04:00:00 -1,8 -2,0 15 8 - - WSW 0,0
28.02.2017 03:00:00 -2,1 -2,2 11 6 - - SW 0,0
28.02.2017 02:00:00 -1,5 -1,5 11 6 - - WSW 0,0
28.02.2017 01:00:00 -0,8 -0,9 9 5 - - SW 0,0
28.02.2017 00:00:00 -0,8 -0,8 8 4 - - WSW 0,0
27.02.2017 23:00:00 -0,5 -0,5 11 6 - - WSW 0,0
27.02.2017 22:00:00 -0,8 -0,9 5 3 - - SW 0,0
27.02.2017 21:00:00 -1,0 -1,2 8 4 - - SW 0,0
27.02.2017 20:00:00 -0,6 -0,7 8 4 - - W 0,0
27.02.2017 19:00:00 0,0 -0,4 5 3 - - W 0,0
27.02.2017 18:00:00 0,7 -0,3 8 4 - - SW 0,0
27.02.2017 17:00:00 1,2 -0,1 9 5 - - ESE 0,0
27.02.2017 16:00:00 0,5 -0,3 5 3 - - SE 0,2
27.02.2017 15:00:00 2,4 -1,6 5 3 - - SSE 0,0
27.02.2017 14:00:00 3,1 -0,8 9 5 - - S 0,0
27.02.2017 13:00:00 3,8 -2,0 5 3 - - SSW 0,0
27.02.2017 12:00:00 4,2 -1,9 8 4 - - S 0,0
27.02.2017 11:00:00 3,2 0,1 18 10 - - SSW 0,0
27.02.2017 10:00:00 2,4 0,0 13 7 - - SSW 0,0
27.02.2017 09:00:00 1,2 -0,7 16 9 - - S 0,0
27.02.2017 08:00:00 0,2 -1,2 22 12 - - S 0,0
27.02.2017 07:00:00 0,2 -0,9 21 11 - - S 0,0
27.02.2017 06:00:00 0,7 -0,7 24 13 - - S 0,0
27.02.2017 05:00:00 1,1 -0,2 24 13 - - SSW 0,0
27.02.2017 04:00:00 1,5 0,1 24 13 - - SSW 0,0
27.02.2017 03:00:00 1,9 0,2 31 17 46 25 SSW 0,0
27.02.2017 02:00:00 2,1 0,3 26 14 - - SSW 0,0
27.02.2017 01:00:00 1,8 0,5 31 17 46 25 SSW 0,0
27.02.2017 00:00:00 1,8 0,9 22 12 - - SSW 0,0
26.02.2017 23:00:00 1,3 1,0 16 9 - - SW 0,6
26.02.2017 22:00:00 2,3 1,0 28 15 52 28 SW 0,2
26.02.2017 21:00:00 3,1 2,2 28 15 - - SW 0,0
26.02.2017 20:00:00 2,2 1,9 24 13 76 41 WSW 0,4
26.02.2017 19:00:00 4,2 2,4 37 20 52 28 WSW 0,0
26.02.2017 18:00:00 4,6 3,6 37 20 59 32 WSW 0,0
26.02.2017 17:00:00 5,5 5,0 37 20 65 35 SW 0,2
26.02.2017 16:00:00 5,9 5,3 46 25 83 45 SW 0,4
26.02.2017 15:00:00 7,6 6,9 54 29 76 41 SSW 0,4
26.02.2017 14:00:00 7,4 6,8 48 26 68 37 S 2,8
26.02.2017 13:00:00 6,8 6,6 31 17 46 25 S 3,0
26.02.2017 12:00:00 6,4 6,0 29 16 - - S 1,2
26.02.2017 11:00:00 6,4 5,5 31 17 46 25 SSW 0,2
26.02.2017 10:00:00 6,1 5,2 31 17 54 29 S 0,0
26.02.2017 09:00:00 5,1 4,5 39 21 59 32 S 0,2
26.02.2017 08:00:00 4,7 4,0 42 23 63 34 S 1,4
26.02.2017 07:00:00 4,5 3,5 37 20 55 30 S 0,2
26.02.2017 06:00:00 4,5 2,7 41 22 52 28 SSW 0,0
26.02.2017 05:00:00 3,5 2,4 24 13 - - SSW 0,0
26.02.2017 04:00:00 3,3 2,2 24 13 - - SSW 0,0
26.02.2017 03:00:00 3,6 2,9 28 15 - - SSW 0,0
26.02.2017 02:00:00 3,4 2,1 21 11 - - SSW 0,0
26.02.2017 01:00:00 3,4 2,3 22 12 - - S 0,0
26.02.2017 00:00:00 2,5 1,8 18 10 - - SSW 0,0
25.02.2017 23:00:00 2,5 1,5 15 8 - - SSW 0,0
25.02.2017 22:00:00 3,8 2,3 11 6 - - SSW 0,0
25.02.2017 21:00:00 4,0 2,3 11 6 - - SW 0,0
25.02.2017 20:00:00 4,6 2,1 13 7 - - SW 0,0
25.02.2017 19:00:00 4,6 2,1 15 8 - - SW 0,0
25.02.2017 18:00:00 5,4 1,5 22 12 - - W 0,0
25.02.2017 17:00:00 6,4 4,2 28 15 - - WSW 0,0
25.02.2017 16:00:00 7,1 4,9 29 16 48 26 WSW 0,0
25.02.2017 15:00:00 7,6 5,3 29 16 48 26 W 0,0
25.02.2017 14:00:00 7,8 6,9 31 17 63 34 WSW 0,2
25.02.2017 13:00:00 8,6 8,2 42 23 65 35 WSW 0,0
25.02.2017 12:00:00 8,4 8,0 42 23 72 39 SW 0,2
25.02.2017 11:00:00 8,2 7,6 46 25 67 36 SSW 0,0
25.02.2017 10:00:00 7,6 7,1 44 24 72 39 SW 0,0
25.02.2017 09:00:00 6,7 6,5 46 25 67 36 SSW 0,8
25.02.2017 08:00:00 6,3 6,0 42 23 65 35 S 0,6
25.02.2017 07:00:00 6,5 5,3 42 23 63 34 SSW 0,0
25.02.2017 06:00:00 5,9 5,3 39 21 55 30 SSW 0,0
25.02.2017 05:00:00 5,9 5,4 41 22 57 31 SSW 2,0
25.02.2017 04:00:00 5,7 5,4 41 22 55 30 SSW 3,8
25.02.2017 03:00:00 5,5 5,3 37 20 55 30 SSW 1,6
25.02.2017 02:00:00 5,5 5,2 39 21 54 29 SSW 0,8
25.02.2017 01:00:00 4,8 4,7 31 17 48 26 SSW 1,4
25.02.2017 00:00:00 4,2 4,2 28 15 - - SSW 0,4
24.02.2017 23:00:00 3,6 3,4 31 17 54 29 S 0,8
24.02.2017 22:00:00 2,7 2,5 41 22 57 31 S 0,2
24.02.2017 21:00:00 2,2 2,0 39 21 54 29 S 1,6
24.02.2017 20:00:00 1,9 1,5 31 17 - - S 0,4
24.02.2017 19:00:00 1,7 1,2 28 15 - - S 0,4
24.02.2017 18:00:00 1,9 1,2 28 15 - - S 0,6
24.02.2017 17:00:00 2,1 1,3 24 13 - - SSW 0,2
24.02.2017 16:00:00 3,1 0,6 24 13 - - SSW 0,0
24.02.2017 15:00:00 3,3 0,5 21 11 - - SW 0,0
24.02.2017 14:00:00 3,5 0,4 18 10 - - SW 0,0
24.02.2017 13:00:00 3,3 0,1 21 11 - - W 0,4
24.02.2017 12:00:00 3,6 0,6 18 10 - - WSW 1,8
24.02.2017 11:00:00 2,8 0,7 24 13 - - WSW 2,4
24.02.2017 10:00:00 1,5 0,3 15 8 - - SW 0,0
24.02.2017 09:00:00 0,6 -0,4 15 8 - - WSW 0,0
24.02.2017 08:00:00 0,0 -0,9 11 6 - - W 0,0
24.02.2017 07:00:00 -0,2 -1,2 15 8 - - W 0,0
24.02.2017 06:00:00 0,1 -0,7 13 7 - - WSW 0,0
24.02.2017 05:00:00 -0,3 -1,1 11 6 - - WSW 0,0
24.02.2017 04:00:00 0,1 -0,6 21 11 - - W 0,0
24.02.2017 03:00:00 -0,1 -0,4 16 9 - - W 0,0
24.02.2017 02:00:00 0,1 0,0 16 9 - - WSW 0,0
24.02.2017 01:00:00 0,4 0,2 18 10 - - W 0,2
24.02.2017 00:00:00 0,8 0,6 22 12 - - W 0,6
23.02.2017 23:00:00 0,9 0,9 24 13 - - W 0,8
23.02.2017 22:00:00 0,8 0,8 22 12 - - W 0,8
23.02.2017 21:00:00 1,0 1,0 13 7 - - WSW 0,8
23.02.2017 20:00:00 1,0 1,0 11 6 - - W 1,0
23.02.2017 19:00:00 1,2 1,1 15 8 - - W 0,8
23.02.2017 18:00:00 1,0 0,9 13 7 - - W 0,8
23.02.2017 17:00:00 0,9 0,9 11 6 - - W 1,2
23.02.2017 16:00:00 0,7 0,7 11 6 - - W 1,8
23.02.2017 15:00:00 0,6 0,6 24 13 - - NNW 2,2
23.02.2017 14:00:00 0,6 0,6 29 16 - - NNW 2,2
23.02.2017 13:00:00 0,5 0,5 29 16 46 25 NNW 0,8
23.02.2017 12:00:00 0,4 0,4 35 19 46 25 N 0,4
23.02.2017 11:00:00 0,2 0,2 37 20 54 29 NNE 0,2
23.02.2017 10:00:00 -0,1 -0,1 39 21 54 29 NE 0,0
23.02.2017 09:00:00 -0,1 -0,1 37 20 55 30 NE 0,2
23.02.2017 08:00:00 0,1 0,1 39 21 54 29 ENE 0,2
23.02.2017 07:00:00 0,1 0,1 31 17 46 25 ENE 1,4
23.02.2017 06:00:00 0,1 0,1 34 18 55 30 ENE 0,0
23.02.2017 05:00:00 0,0 0,0 41 22 52 28 E 0,0
23.02.2017 04:00:00 0,0 0,0 34 18 46 25 E 0,2
23.02.2017 03:00:00 0,1 0,1 22 12 - - E 0,0
23.02.2017 02:00:00 0,2 0,0 18 10 - - E 1,8
23.02.2017 01:00:00 2,4 1,8 13 7 - - SE 1,2
23.02.2017 00:00:00 3,1 2,3 16 9 - - SSE 0,0
22.02.2017 23:00:00 3,1 2,8 15 8 - - S 0,0
22.02.2017 22:00:00 2,9 2,1 15 8 - - SSW 0,0
22.02.2017 21:00:00 3,0 1,8 13 7 - - SSW 0,0
22.02.2017 20:00:00 3,3 1,3 21 11 - - WSW 0,0
22.02.2017 19:00:00 3,8 1,2 18 10 - - W 0,0
22.02.2017 18:00:00 4,0 1,8 28 15 46 25 W 0,0
22.02.2017 17:00:00 4,9 1,7 31 17 52 28 W 0,0
22.02.2017 16:00:00 5,5 1,6 39 21 63 34 W 0,0
22.02.2017 15:00:00 6,2 1,1 42 23 65 35 W 0,0
22.02.2017 14:00:00 5,6 1,2 41 22 61 33 W 0,0

tt = temperature
td = dewpoint
ff = wind speed
fx = gusts
dd = wind direction
rr = precipitation

Next stations